Time;durP1;ratioP1;P1;durP2;ratioP2;P2;SDS_P1;SDS_P2;PMS_P1;PMS_P2;Temp;Humidity;BMP_temperature;BMP_pressure;BME280_temperature;BME280_humidity;BME280_pressure;Samples;Min_cycle;Max_cycle;Signal;HPM_P1;HPM_P2
2023/10/07 00:00:32;;;;;;;3.45;3.15;;;;;;;12.12;89.46;63250.69;5086439;28;20280;-77
2023/10/07 00:03:00;;;;;;;9.20;3.17;;;;;;;12.06;89.63;63241.41;5078199;28;20264;-76
2023/10/07 00:05:32;;;;;;;5.13;3.10;;;;;;;12.04;90.23;63242.41;5069858;28;20537;-76
2023/10/07 00:08:02;;;;;;;3.72;3.42;;;;;;;12.04;91.10;63239.84;5069878;28;20197;-76
2023/10/07 00:10:30;;;;;;;3.17;2.97;;;;;;;11.98;90.90;63231.06;5069030;28;20228;-77
2023/10/07 00:13:00;;;;;;;3.28;2.97;;;;;;;11.97;91.87;63232.59;5070884;28;20256;-76
2023/10/07 00:15:29;;;;;;;4.65;3.45;;;;;;;11.91;92.00;63228.41;5068410;28;20244;-78
2023/10/07 00:18:00;;;;;;;6.28;3.30;;;;;;;11.89;92.17;63228.88;5082936;28;20221;-77
2023/10/07 00:20:33;;;;;;;3.72;3.30;;;;;;;11.85;92.54;63217.59;5089409;28;20224;-77
2023/10/07 00:23:00;;;;;;;5.38;3.38;;;;;;;11.82;92.84;63219.59;5077792;28;20204;-77
2023/10/07 00:25:30;;;;;;;3.58;2.92;;;;;;;11.82;93.23;63221.63;5082346;28;20248;-76
2023/10/07 00:27:59;;;;;;;5.68;2.92;;;;;;;11.78;93.31;63215.44;5067489;28;20202;-76
2023/10/07 00:30:30;;;;;;;3.22;3.00;;;;;;;11.80;93.66;63214.97;5070780;28;20231;-78
2023/10/07 00:32:58;;;;;;;5.20;3.28;;;;;;;11.81;94.12;63216.00;5085435;28;20197;-76
2023/10/07 00:35:29;;;;;;;4.22;3.50;;;;;;;11.82;94.26;63216.53;5068950;28;20225;-78
2023/10/07 00:37:58;;;;;;;3.47;2.88;;;;;;;11.81;94.01;63221.09;5067136;28;20232;-78
2023/10/07 00:40:41;;;;;;;5.47;2.83;;;;;;;11.81;93.93;63212.94;5088317;28;20251;-77
2023/10/07 00:43:11;;;;;;;3.42;3.15;;;;;;;11.82;94.14;63213.97;5088750;28;20223;-78
2023/10/07 00:45:38;;;;;;;3.67;3.38;;;;;;;11.77;94.68;63213.91;5077460;28;20228;-77
2023/10/07 00:48:11;;;;;;;3.78;3.47;;;;;;;11.79;94.60;63213.94;5071167;28;20232;-77
2023/10/07 00:50:40;;;;;;;3.63;3.33;;;;;;;11.72;94.87;63211.78;5068449;28;20288;-77
2023/10/07 00:53:12;;;;;;;3.60;3.22;;;;;;;11.69;95.60;63206.13;5069683;28;20215;-76
2023/10/07 00:55:41;;;;;;;3.95;3.55;;;;;;;11.69;95.43;63200.50;5070926;28;20272;-77
2023/10/07 00:58:19;;;;;;;3.92;3.63;;;;;;;11.70;95.70;63209.69;5078423;28;20228;-77
2023/10/07 01:00:49;;;;;;;4.93;3.50;;;;;;;11.74;95.45;63213.34;5068652;28;20221;-78
2023/10/07 01:03:32;;;;;;;3.20;2.95;;;;;;;11.74;95.69;63213.84;5073136;28;20204;-78
2023/10/07 01:06:12;;;;;;;3.92;3.53;;;;;;;11.75;95.68;63209.28;5071046;28;20213;-78
2023/10/07 01:08:44;;;;;;;6.03;3.35;;;;;;;11.75;95.80;63212.34;5087349;28;20212;-79
2023/10/07 01:11:23;;;;;;;4.18;3.28;;;;;;;11.73;95.84;63207.19;5081439;28;20367;-79
2023/10/07 01:13:52;;;;;;;7.35;3.63;;;;;;;11.68;96.27;63205.09;5083986;28;20271;-77
2023/10/07 01:16:40;;;;;;;3.53;3.22;;;;;;;11.62;96.80;63196.81;5086379;28;20208;-78
2023/10/07 01:19:28;;;;;;;3.50;3.20;;;;;;;11.63;96.91;63205.00;5078345;28;20499;-77
2023/10/07 01:21:58;;;;;;;5.10;3.65;;;;;;;11.55;97.26;63191.59;5079283;28;20197;-78
2023/10/07 01:24:49;;;;;;;6.40;3.83;;;;;;;11.52;97.70;63191.56;5073327;28;20252;-78
2023/10/07 01:27:29;;;;;;;3.78;3.47;;;;;;;11.51;98.07;63190.53;5068188;28;20201;-77
2023/10/07 01:30:06;;;;;;;4.05;3.83;;;;;;;11.45;98.64;63181.75;5067308;28;20219;-76
2023/10/07 01:32:33;;;;;;;4.07;3.53;;;;;;;11.42;99.12;63175.59;5077318;28;20200;-79
2023/10/07 01:35:05;;;;;;;6.95;4.05;;;;;;;11.46;99.30;63182.28;5081867;28;20299;-77
2023/10/07 01:37:43;;;;;;;5.88;3.15;;;;;;;11.45;98.98;63181.25;5086363;28;20228;-77
2023/10/07 01:40:15;;;;;;;3.70;3.40;;;;;;;11.42;99.04;63175.59;5080922;28;20427;-78
2023/10/07 01:42:45;;;;;;;4.47;3.78;;;;;;;11.41;99.41;63174.53;5067650;28;20544;-78
2023/10/07 01:45:20;;;;;;;4.50;4.10;;;;;;;11.42;99.61;63178.66;5067195;28;20217;-78
2023/10/07 01:47:49;;;;;;;3.75;3.45;;;;;;;11.42;99.59;63181.19;5066769;28;20311;-77
2023/10/07 01:50:18;;;;;;;4.60;3.72;;;;;;;11.38;100.00;63171.44;5080312;28;20247;-78
2023/10/07 01:52:48;;;;;;;6.32;3.70;;;;;;;11.37;100.00;63175.50;5084248;28;20267;-78
2023/10/07 01:55:19;;;;;;;5.40;4.10;;;;;;;11.30;100.00;63166.22;5086763;28;20224;-79
2023/10/07 01:57:48;;;;;;;5.45;3.40;;;;;;;11.31;100.00;63161.63;5084934;28;20236;-77
2023/10/07 02:00:36;;;;;;;3.60;3.30;;;;;;;11.33;100.00;63163.72;5070347;28;20217;-77
2023/10/07 02:03:08;;;;;;;4.18;3.78;;;;;;;11.25;100.00;63158.50;5079604;28;20432;-78
2023/10/07 02:05:40;;;;;;;4.07;3.10;;;;;;;11.27;100.00;63157.50;5086635;28;20234;-77
2023/10/07 02:08:11;;;;;;;4.60;4.05;;;;;;;11.26;100.00;63159.53;5085063;28;20246;-77
2023/10/07 02:10:41;;;;;;;5.43;3.80;;;;;;;11.28;100.00;63161.09;5082597;28;20545;-76
2023/10/07 02:13:12;;;;;;;6.70;4.15;;;;;;;11.25;100.00;63157.97;5087308;28;20192;-76
2023/10/07 02:15:42;;;;;;;3.92;3.63;;;;;;;11.20;100.00;63160.97;5075781;28;20244;-78
2023/10/07 02:18:15;;;;;;;3.92;3.60;;;;;;;11.14;100.00;63146.59;5084918;28;20243;-77
2023/10/07 02:20:49;;;;;;;4.82;4.40;;;;;;;11.15;100.00;63150.16;5076082;28;20280;-77
2023/10/07 02:23:22;;;;;;;3.67;3.40;;;;;;;11.11;100.00;63146.03;5086482;28;20223;-77
2023/10/07 02:25:51;;;;;;;4.47;3.90;;;;;;;11.09;100.00;63141.41;5083611;28;20220;-78
2023/10/07 02:28:21;;;;;;;5.32;3.55;;;;;;;11.11;100.00;63143.47;5076454;28;20386;-78
2023/10/07 02:31:00;;;;;;;4.10;3.78;;;;;;;11.08;100.00;63140.38;5073142;28;20236;-78
2023/10/07 02:33:28;;;;;;;6.47;3.55;;;;;;;11.10;100.00;63147.53;5068674;28;20521;-78
2023/10/07 02:35:57;;;;;;;3.97;3.60;;;;;;;11.03;100.00;63140.81;5064844;28;20209;-78
2023/10/07 02:38:36;;;;;;;3.42;3.17;;;;;;;10.99;100.00;63129.00;5064805;28;20436;-78
2023/10/07 02:41:16;;;;;;;3.85;3.55;;;;;;;11.05;100.00;63139.81;5067360;28;20213;-78
2023/10/07 02:43:48;;;;;;;3.45;3.10;;;;;;;11.01;100.00;63133.63;5073241;28;20264;-77
2023/10/07 02:46:31;;;;;;;4.75;3.75;;;;;;;11.02;100.00;63134.69;5079904;28;20288;-78
2023/10/07 02:49:05;;;;;;;5.75;3.83;;;;;;;10.99;100.00;63128.50;5066670;28;20250;-78
2023/10/07 02:51:33;;;;;;;4.72;4.13;;;;;;;10.93;100.00;63127.91;5068736;28;20219;-78
2023/10/07 02:54:06;;;;;;;4.47;4.07;;;;;;;10.95;100.00;63129.47;5086310;28;20197;-77
2023/10/07 02:56:44;;;;;;;3.38;3.10;;;;;;;10.94;100.00;63126.38;5083343;28;20239;-77
2023/10/07 02:59:25;;;;;;;4.13;3.30;;;;;;;10.94;100.00;63126.38;5069988;28;20188;-79
2023/10/07 03:02:12;;;;;;;3.70;3.40;;;;;;;10.85;100.00;63119.09;5074234;28;20243;-79
2023/10/07 03:04:42;;;;;;;3.78;3.47;;;;;;;10.83;100.00;63117.03;5086074;28;20224;-79
2023/10/07 03:07:14;;;;;;;6.72;3.78;;;;;;;10.80;100.00;63114.47;5070634;28;20272;-78
2023/10/07 03:09:45;;;;;;;3.75;3.47;;;;;;;10.76;100.00;63107.25;5088946;28;20233;-77
2023/10/07 03:12:13;;;;;;;4.10;3.70;;;;;;;10.69;100.00;63105.09;5066342;28;20212;-77
2023/10/07 03:14:43;;;;;;;4.88;3.95;;;;;;;10.65;100.00;63096.38;5065726;28;20217;-78
2023/10/07 03:17:18;;;;;;;5.05;3.85;;;;;;;10.58;100.00;63089.13;5083225;28;20248;-76
2023/10/07 03:19:53;;;;;;;4.85;3.55;;;;;;;10.53;100.00;63086.00;5084695;28;20326;-78
2023/10/07 03:22:28;;;;;;;4.97;3.92;;;;;;;10.42;100.00;63072.56;5085945;28;20199;-77
2023/10/07 03:25:00;;;;;;;8.68;4.15;;;;;;;10.52;100.00;63087.50;5087145;28;20239;-78
2023/10/07 03:27:29;;;;;;;3.63;3.33;;;;;;;10.51;100.00;63081.88;5085338;28;20512;-77
2023/10/07 03:30:12;;;;;;;6.13;3.95;;;;;;;10.51;100.00;63079.31;5066538;28;20229;-77
2023/10/07 03:35:59;;;;;;;4.97;3.22;;;;;;;10.44;100.00;63077.69;5081017;28;20254;-78
2023/10/07 03:38:26;;;;;;;3.35;3.05;;;;;;;10.37;100.00;63067.41;5085906;28;20241;-76
2023/10/07 03:40:54;;;;;;;3.92;3.13;;;;;;;10.32;100.00;63062.22;5085205;28;20228;-77
2023/10/07 03:43:25;;;;;;;6.15;3.53;;;;;;;10.31;100.00;63061.19;5077162;28;20217;-78
2023/10/07 03:45:53;;;;;;;4.10;3.80;;;;;;;10.26;100.00;63061.63;5079042;28;20224;-77
2023/10/07 03:48:31;;;;;;;5.72;4.00;;;;;;;10.20;100.00;63052.88;5086654;28;20203;-76
2023/10/07 03:51:06;;;;;;;5.10;4.50;;;;;;;10.18;100.00;63048.25;5091657;28;20291;-78
2023/10/07 03:53:44;;;;;;;6.10;4.65;;;;;;;10.15;100.00;63042.59;5072326;28;20197;-77
2023/10/07 03:56:12;;;;;;;5.53;3.88;;;;;;;10.10;100.00;63042.53;5077377;28;20216;-77
2023/10/07 03:58:43;;;;;;;7.03;4.20;;;;;;;10.06;100.00;63033.25;5089665;28;20250;-79
2023/10/07 04:01:16;;;;;;;4.72;4.30;;;;;;;9.97;100.00;63026.50;5090676;28;20224;-78
2023/10/07 04:03:46;;;;;;;4.53;4.13;;;;;;;10.02;100.00;63034.22;5080892;28;20254;-77
2023/10/07 04:06:16;;;;;;;4.53;4.22;;;;;;;9.92;100.00;63023.38;5069831;28;20417;-78
2023/10/07 04:08:44;;;;;;;4.35;3.67;;;;;;;9.88;100.00;63019.75;5069522;28;20198;-76
2023/10/07 04:11:16;;;;;;;3.92;3.55;;;;;;;9.85;100.00;63016.13;5069568;28;20217;-77
2023/10/07 04:13:53;;;;;;;4.45;4.15;;;;;;;9.76;100.00;63006.81;5070744;28;20225;-78
2023/10/07 04:16:24;;;;;;;4.38;3.72;;;;;;;9.70;100.00;63003.16;5069163;28;20221;-77
2023/10/07 04:18:51;;;;;;;4.15;3.60;;;;;;;9.68;100.00;63001.59;5069312;28;20244;-79
2023/10/07 04:21:20;;;;;;;5.07;3.63;;;;;;;9.67;100.00;63002.56;5069865;28;20228;-79
2023/10/07 04:23:48;;;;;;;3.78;3.47;;;;;;;9.68;100.00;62990.91;5069846;28;20391;-77
2023/10/07 04:26:20;;;;;;;6.90;4.50;;;;;;;9.62;100.00;62992.84;5070271;28;20240;-78
2023/10/07 04:28:53;;;;;;;9.45;5.72;;;;;;;9.59;100.00;62994.31;5068736;28;20375;-77
2023/10/07 04:31:29;;;;;;;5.38;4.82;;;;;;;9.61;100.00;62988.75;5074562;28;20221;-78
2023/10/07 04:34:01;;;;;;;4.45;4.05;;;;;;;9.62;100.00;62989.78;5067875;28;20200;-80
2023/10/07 04:36:33;;;;;;;4.82;3.90;;;;;;;9.63;100.00;62991.34;5070297;28;20256;-79
2023/10/07 04:39:08;;;;;;;4.35;3.53;;;;;;;9.63;100.00;62998.97;5071580;28;20229;-78
2023/10/07 04:41:36;;;;;;;5.47;3.38;;;;;;;9.63;100.00;62993.38;5068870;28;20230;-77
2023/10/07 04:47:20;;;;;;;5.88;3.47;;;;;;;9.61;100.00;62984.19;5055326;28;20193;-78
2023/10/07 04:49:55;;;;;;;3.47;3.17;;;;;;;9.61;100.00;62986.22;5082761;28;20225;-78
2023/10/07 04:52:24;;;;;;;4.53;3.70;;;;;;;9.62;100.00;62987.25;5071777;28;20200;-78
2023/10/07 04:54:52;;;;;;;5.97;3.65;;;;;;;9.65;100.00;62992.88;5073178;28;20216;-79
2023/10/07 04:57:39;;;;;;;5.05;3.83;;;;;;;9.63;100.00;62993.88;5069891;28;20261;-79
2023/10/07 05:00:09;;;;;;;4.97;4.45;;;;;;;9.69;100.00;62994.47;5067326;28;20217;-78
2023/10/07 05:02:38;;;;;;;4.38;3.97;;;;;;;9.70;100.00;62998.56;5069381;28;20244;-79
2023/10/07 05:05:13;;;;;;;5.07;3.78;;;;;;;9.76;100.00;63004.25;5077424;28;20216;-76
2023/10/07 05:07:39;;;;;;;4.45;4.05;;;;;;;9.84;100.00;63012.53;5087432;28;20205;-78
2023/10/07 05:10:09;;;;;;;3.53;3.22;;;;;;;9.80;100.00;63008.41;5078891;28;20502;-77
2023/10/07 05:12:39;;;;;;;4.60;3.25;;;;;;;9.91;100.00;63019.78;5068805;28;20567;-77
2023/10/07 05:15:09;;;;;;;6.72;4.45;;;;;;;10.02;100.00;63031.16;5067973;28;20228;-78
2023/10/07 05:17:36;;;;;;;6.40;3.85;;;;;;;10.01;100.00;63030.13;5079251;28;20236;-76
2023/10/07 05:20:26;;;;;;;3.42;3.20;;;;;;;10.09;100.00;63035.88;5084073;28;20219;-78
2023/10/07 05:22:51;;;;;;;6.18;4.88;;;;;;;10.19;100.00;63048.78;5068112;28;20290;-78
2023/10/07 05:25:18;;;;;;;5.05;4.55;;;;;;;10.28;100.00;63058.59;5068536;28;20225;-80
2023/10/07 05:27:47;;;;;;;6.22;5.60;;;;;;;10.38;100.00;63068.94;5070442;28;20197;-79
2023/10/07 05:30:18;;;;;;;5.97;5.50;;;;;;;10.35;100.00;63070.41;5069401;28;20539;-77
2023/10/07 05:32:46;;;;;;;11.20;6.00;;;;;;;10.30;100.00;63063.22;5087230;28;20191;-76
2023/10/07 05:35:18;;;;;;;11.55;6.20;;;;;;;10.36;100.00;63069.44;5070563;28;20224;-78
2023/10/07 05:37:45;;;;;;;9.63;7.82;;;;;;;10.42;100.00;63070.03;5080600;28;20416;-78
2023/10/07 05:40:16;;;;;;;13.50;8.10;;;;;;;10.54;100.00;63081.94;5068245;28;20217;-78
2023/10/07 05:42:44;;;;;;;8.98;7.45;;;;;;;10.54;100.00;63092.09;5067426;28;20190;-78
2023/10/07 05:45:14;;;;;;;8.75;6.72;;;;;;;10.63;100.00;63094.28;5081476;28;20217;-79
2023/10/07 05:47:45;;;;;;;9.45;7.45;;;;;;;10.72;100.00;63111.25;5074348;28;20212;-77
2023/10/07 05:50:13;;;;;;;8.23;7.18;;;;;;;10.92;100.00;63123.81;5070214;28;20258;-82
2023/10/07 05:52:41;;;;;;;7.65;6.97;;;;;;;10.95;100.00;63132.53;5068618;28;21278;-79
2023/10/07 05:55:10;;;;;;;7.15;6.43;;;;;;;11.20;100.00;63152.81;5079064;28;20232;-77
2023/10/07 05:57:37;;;;;;;12.25;7.22;;;;;;;11.22;100.00;63157.94;5080064;28;20200;-78
2023/10/07 06:00:09;;;;;;;10.48;6.70;;;;;;;11.14;100.00;63144.56;5072238;28;20217;-76
2023/10/07 06:02:40;;;;;;;11.57;6.97;;;;;;;11.11;100.00;63146.03;5076891;28;20257;-80
2023/10/07 06:05:10;;;;;;;11.90;7.50;;;;;;;11.08;100.00;63145.97;5077647;28;21099;-78
2023/10/07 06:07:38;;;;;;;10.65;7.50;;;;;;;11.17;100.00;63147.66;5068830;28;20228;-76
2023/10/07 06:10:09;;;;;;;7.55;6.88;;;;;;;11.20;100.00;63155.84;5077983;28;20224;-78
2023/10/07 06:12:37;;;;;;;12.95;7.75;;;;;;;11.29;100.00;63167.72;5074331;28;20193;-81
2023/10/07 06:15:08;;;;;;;10.35;7.28;;;;;;;11.49;100.00;63185.38;5073880;28;20235;-78
2023/10/07 06:17:36;;;;;;;10.20;6.65;;;;;;;11.69;100.00;63205.59;5077944;28;20197;-79
2023/10/07 06:20:14;;;;;;;12.80;6.85;;;;;;;11.94;100.00;63231.50;5086466;28;20240;-80
2023/10/07 06:22:46;;;;;;;7.65;6.43;;;;;;;12.34;100.00;63272.97;5085970;28;20256;-79
2023/10/07 06:25:15;;;;;;;14.00;6.88;;;;;;;12.49;100.00;63280.88;5079273;28;20228;-78
2023/10/07 06:27:43;;;;;;;12.25;6.85;;;;;;;12.39;100.00;63276.13;5081045;28;20224;-78
2023/10/07 06:30:20;;;;;;;7.57;6.68;;;;;;;12.33;100.00;63275.00;5072419;28;20229;-77
2023/10/07 06:32:55;;;;;;;6.65;5.90;;;;;;;12.27;100.00;63263.66;5069962;28;20205;-79
2023/10/07 06:35:23;;;;;;;7.15;6.03;;;;;;;12.35;100.00;63271.47;5078342;28;20415;-79
2023/10/07 06:37:57;;;;;;;9.45;6.40;;;;;;;12.36;100.00;63273.00;5078187;28;20190;-78
2023/10/07 06:40:28;;;;;;;6.57;5.85;;;;;;;12.43;100.00;63282.81;5069362;28;20227;-80
2023/10/07 06:42:58;;;;;;;9.75;6.22;;;;;;;12.53;100.00;63293.19;5068523;28;20273;-78
2023/10/07 06:45:29;;;;;;;6.30;5.47;;;;;;;12.57;99.41;63294.25;5074793;28;20224;-77
2023/10/07 06:47:59;;;;;;;9.02;5.43;;;;;;;12.52;99.02;63292.16;5076903;28;20232;-78
2023/10/07 06:50:28;;;;;;;8.07;5.47;;;;;;;12.42;99.20;63276.16;5078324;28;20267;-78
2023/10/07 06:52:57;;;;;;;10.32;5.97;;;;;;;12.58;98.63;63295.81;5078758;28;20251;-80
2023/10/07 06:55:24;;;;;;;9.75;5.28;;;;;;;12.82;98.87;63322.22;5074978;28;20217;-79
2023/10/07 06:57:56;;;;;;;9.40;6.05;;;;;;;12.86;96.28;63323.81;5078274;28;20219;-80
2023/10/07 07:00:24;;;;;;;7.57;6.13;;;;;;;13.10;93.76;63351.28;5077900;28;20259;-81
2023/10/07 07:02:57;;;;;;;12.05;5.75;;;;;;;13.28;91.86;63364.84;5079499;28;20188;-81
2023/10/07 07:05:26;;;;;;;7.20;5.38;;;;;;;13.35;92.10;63372.63;5074154;28;20221;-80
2023/10/07 07:07:53;;;;;;;5.85;4.63;;;;;;;13.33;90.60;63373.09;5086189;28;20314;-79
2023/10/07 07:10:31;;;;;;;7.18;4.70;;;;;;;13.45;89.80;63385.03;5085736;28;20224;-80
2023/10/07 07:13:05;;;;;;;11.70;6.10;;;;;;;13.52;90.81;63392.31;5089179;28;20193;-79
2023/10/07 07:15:37;;;;;;;7.53;5.63;;;;;;;13.56;92.70;63394.41;5077207;28;20202;-80
2023/10/07 07:18:14;;;;;;;8.10;5.65;;;;;;;13.56;90.19;63404.13;5090358;28;20379;-78
2023/10/07 07:20:55;;;;;;;5.13;4.63;;;;;;;13.72;88.66;63411.00;5093082;28;20583;-78
2023/10/07 07:23:25;;;;;;;10.73;4.63;;;;;;;13.81;88.19;63422.91;5083634;28;20192;-79
2023/10/07 07:26:03;;;;;;;5.95;4.32;;;;;;;13.98;86.91;63447.72;5084371;28;20221;-80
2023/10/07 07:28:30;;;;;;;8.90;4.35;;;;;;;13.97;84.81;63441.03;5075650;28;20201;-78
2023/10/07 07:30:57;;;;;;;5.25;4.18;;;;;;;13.98;85.56;63436.97;5079930;28;20227;-79
2023/10/07 07:33:29;;;;;;;5.70;4.30;;;;;;;14.03;86.05;63442.16;5079307;28;20204;-79
2023/10/07 07:35:57;;;;;;;7.45;5.10;;;;;;;14.02;83.81;63443.69;5076119;28;20412;-78
2023/10/07 07:38:43;;;;;;;9.57;5.53;;;;;;;14.24;85.72;63464.47;5077119;28;20229;-80
2023/10/07 07:41:26;;;;;;;7.60;4.10;;;;;;;14.37;82.49;63474.91;5088161;28;20216;-76
2023/10/07 07:43:58;;;;;;;11.57;4.55;;;;;;;14.33;83.46;63476.41;5091316;28;20200;-78
2023/10/07 07:46:30;;;;;;;7.70;4.53;;;;;;;14.23;82.33;63468.56;5083524;28;20200;-78
2023/10/07 07:49:06;;;;;;;5.97;4.68;;;;;;;14.38;83.09;63486.72;5093348;28;20189;-79
2023/10/07 07:51:37;;;;;;;9.85;4.95;;;;;;;14.45;81.50;63485.78;5087267;28;20498;-78
2023/10/07 07:54:09;;;;;;;14.10;5.32;;;;;;;14.54;81.73;63498.22;5093404;28;20193;-80
2023/10/07 07:56:42;;;;;;;6.97;5.10;;;;;;;14.71;81.20;63518.44;5095005;28;20235;-80
2023/10/07 07:59:14;;;;;;;5.32;4.63;;;;;;;14.85;80.13;63532.47;5090548;28;20228;-79
2023/10/07 08:01:44;;;;;;;8.27;4.38;;;;;;;14.98;80.09;63548.53;5091027;28;20216;-78
2023/10/07 08:04:17;;;;;;;4.68;3.78;;;;;;;15.00;77.91;63548.03;5080044;28;20200;-78
2023/10/07 08:06:47;;;;;;;5.75;4.82;;;;;;;14.99;78.38;63547.53;5086484;28;20200;-78
2023/10/07 08:09:19;;;;;;;5.90;5.30;;;;;;;15.17;77.21;63563.13;5080564;28;20216;-78
2023/10/07 08:11:49;;;;;;;6.65;4.35;;;;;;;15.34;76.72;63585.44;5073139;28;20211;-78
2023/10/07 08:14:18;;;;;;;5.75;4.43;;;;;;;15.45;76.41;63599.97;5086394;28;20212;-79
2023/10/07 08:16:51;;;;;;;8.95;5.47;;;;;;;15.56;75.10;63603.69;5092577;28;20246;-78
2023/10/07 08:19:23;;;;;;;6.43;4.70;;;;;;;15.52;73.65;63599.00;5087818;28;20630;-77
2023/10/07 08:21:52;;;;;;;6.18;5.13;;;;;;;15.51;74.92;63598.50;5091302;28;20241;-78
2023/10/07 08:24:30;;;;;;;11.60;4.85;;;;;;;15.71;73.80;63618.75;5093703;28;20255;-79
2023/10/07 08:27:03;;;;;;;5.57;5.00;;;;;;;15.72;73.29;63617.25;5086547;28;20205;-78
2023/10/07 08:29:34;;;;;;;8.65;5.50;;;;;;;15.57;73.50;63606.78;5082043;28;20242;-80
2023/10/07 08:32:28;;;;;;;7.68;5.10;;;;;;;15.73;73.87;63621.38;5079834;28;20215;-79
2023/10/07 08:34:59;;;;;;;6.22;5.18;;;;;;;15.92;71.94;63641.13;5082440;28;20248;-77
2023/10/07 08:37:32;;;;;;;14.20;9.25;;;;;;;15.99;71.10;63650.44;5077080;28;20223;-80
2023/10/07 08:40:09;;;;;;;11.52;6.70;;;;;;;16.23;71.61;63677.47;5077007;28;20237;-79
2023/10/07 08:42:44;;;;;;;12.55;7.35;;;;;;;16.51;70.88;63698.91;5074782;28;20189;-79
2023/10/07 08:45:23;;;;;;;8.85;5.78;;;;;;;16.38;66.73;63691.00;5073553;28;21692;-79
2023/10/07 08:47:51;;;;;;;5.85;5.22;;;;;;;16.43;66.53;63693.63;5079305;28;20246;-78
2023/10/07 08:50:22;;;;;;;11.27;5.70;;;;;;;16.49;66.83;63696.81;5076353;28;20262;-77
2023/10/07 08:53:03;;;;;;;8.73;5.38;;;;;;;16.53;66.59;63709.19;5072400;28;20216;-78
2023/10/07 08:55:33;;;;;;;7.10;5.70;;;;;;;16.50;65.34;63703.50;5083359;28;20289;-78
2023/10/07 08:58:03;;;;;;;10.05;6.85;;;;;;;16.45;65.11;63695.19;5069320;28;20219;-78
2023/10/07 09:00:33;;;;;;;11.20;6.43;;;;;;;16.47;65.84;63702.97;5071726;28;20319;-79
2023/10/07 09:03:10;;;;;;;12.13;7.20;;;;;;;16.73;65.33;63726.94;5076802;28;20200;-79
2023/10/07 09:05:37;;;;;;;12.48;7.00;;;;;;;16.95;61.93;63750.34;5083918;28;20214;-78
2023/10/07 09:08:11;;;;;;;13.88;6.78;;;;;;;16.93;61.90;63750.84;5089043;28;20200;-78
2023/10/07 09:10:40;;;;;;;78.35;39.85;;;;;;;17.05;64.92;63765.38;5078601;28;20249;-79
2023/10/07 09:13:12;;;;;;;12.55;7.28;;;;;;;17.03;61.24;63760.72;5085700;28;20260;-79
2023/10/07 09:15:42;;;;;;;7.60;6.90;;;;;;;17.06;60.20;63766.94;5085641;28;20215;-77
2023/10/07 09:18:10;;;;;;;12.15;8.10;;;;;;;17.29;59.58;63780.06;5084025;28;20197;-79
2023/10/07 09:20:45;;;;;;;9.32;7.13;;;;;;;17.44;58.33;63803.41;5071303;28;20267;-76
2023/10/07 09:23:19;;;;;;;12.82;7.13;;;;;;;17.41;59.60;63794.63;5085381;28;20200;-77
2023/10/07 09:25:50;;;;;;;9.32;6.88;;;;;;;17.39;59.79;63792.53;5074318;28;20248;-78
2023/10/07 09:28:21;;;;;;;8.10;6.93;;;;;;;17.57;60.35;63811.28;5072373;28;20197;-78
2023/10/07 09:30:48;;;;;;;12.63;6.75;;;;;;;17.52;57.93;63803.50;5078354;28;20219;-78
2023/10/07 09:33:18;;;;;;;9.98;6.05;;;;;;;17.76;57.81;63834.16;5088031;28;20246;-78
2023/10/07 09:35:47;;;;;;;14.25;6.65;;;;;;;17.67;57.70;63824.78;5073305;28;20213;-79
2023/10/07 09:38:26;;;;;;;11.52;6.40;;;;;;;17.56;57.10;63813.34;5074334;28;20216;-76
2023/10/07 09:43:43;;;;;;;14.52;6.03;;;;;;;17.43;58.08;63799.78;5077933;28;20203;-80
2023/10/07 09:46:11;;;;;;;13.75;6.57;;;;;;;17.56;58.26;63813.34;5078594;28;20242;-79
2023/10/07 09:48:41;;;;;;;14.00;7.43;;;;;;;17.72;56.61;63829.50;5091731;28;20210;-78
2023/10/07 09:51:23;;;;;;;10.15;6.18;;;;;;;17.69;56.36;63828.94;5077713;28;20216;-78
2023/10/07 09:54:15;;;;;;;8.13;6.30;;;;;;;17.83;55.34;63843.50;5077104;28;20200;-79
2023/10/07 09:57:05;;;;;;;9.20;6.40;;;;;;;17.90;54.85;63846.19;5069600;28;20200;-78
2023/10/07 09:59:48;;;;;;;11.30;6.00;;;;;;;18.00;53.99;63861.22;5069442;28;20288;-78
2023/10/07 10:02:51;;;;;;;8.30;5.57;;;;;;;18.09;53.44;63868.53;5068842;28;20219;-78
2023/10/07 10:05:40;;;;;;;10.23;7.13;;;;;;;18.02;53.71;63865.88;5082318;28;20242;-80
2023/10/07 10:08:43;;;;;;;10.93;6.40;;;;;;;18.12;54.33;63863.94;5078485;28;20191;-79
2023/10/07 10:11:30;;;;;;;12.45;6.65;;;;;;;18.28;53.60;63890.38;5072820;28;20215;-78
2023/10/07 10:16:53;;;;;;;11.00;6.72;;;;;;;18.47;52.26;63907.63;5070396;28;20316;-81
2023/10/07 10:19:28;;;;;;;9.93;6.57;;;;;;;18.73;50.52;63934.72;5088785;28;20230;-79
2023/10/07 10:21:56;;;;;;;10.45;6.25;;;;;;;18.55;51.07;63918.53;5083631;28;20287;-78
2023/10/07 10:24:24;;;;;;;7.57;6.30;;;;;;;18.69;51.45;63932.63;5084382;28;20288;-79
2023/10/07 10:27:02;;;;;;;8.73;6.38;;;;;;;18.66;50.87;63924.31;5078653;28;20230;-79
2023/10/07 10:29:33;;;;;;;10.57;6.57;;;;;;;18.56;51.09;63914.44;5084128;28;20235;-77
2023/10/07 10:32:07;;;;;;;11.85;8.25;;;;;;;18.73;50.65;63939.38;5078762;28;20196;-78
2023/10/07 10:34:35;;;;;;;8.02;5.97;;;;;;;18.95;49.79;63957.13;5080541;28;20211;-79
2023/10/07 10:37:06;;;;;;;5.63;5.05;;;;;;;18.96;49.50;63960.75;5070167;28;20203;-79
2023/10/07 10:39:33;;;;;;;7.95;5.38;;;;;;;18.83;48.92;63942.03;5070064;28;20262;-78
2023/10/07 10:42:09;;;;;;;8.55;5.35;;;;;;;18.98;48.54;63950.44;5092762;28;20219;-80
2023/10/07 10:44:38;;;;;;;8.70;5.60;;;;;;;19.11;48.78;63976.41;5079556;28;20224;-80
2023/10/07 10:47:09;;;;;;;6.70;5.22;;;;;;;19.26;49.09;63989.44;5089466;28;20237;-79
2023/10/07 10:49:36;;;;;;;8.93;5.82;;;;;;;19.46;49.63;64010.34;5075854;28;20212;-80
2023/10/07 10:52:04;;;;;;;10.55;6.38;;;;;;;19.59;49.58;64026.47;5075415;28;20232;-79
2023/10/07 10:54:32;;;;;;;12.15;7.32;;;;;;;19.37;48.68;63998.91;5072223;28;20221;-78
2023/10/07 10:57:00;;;;;;;8.63;5.93;;;;;;;19.37;48.57;64004.06;5093931;28;20251;-78
2023/10/07 10:59:42;;;;;;;6.45;5.72;;;;;;;19.52;48.61;64016.59;5091821;28;20231;-80
2023/10/07 11:02:12;;;;;;;11.05;6.63;;;;;;;19.64;48.72;64031.19;5092777;28;20192;-80
2023/10/07 11:04:43;;;;;;;10.52;5.93;;;;;;;19.71;48.03;64035.91;5096144;28;20215;-80
2023/10/07 11:07:12;;;;;;;8.57;6.60;;;;;;;19.92;47.86;64057.78;5096774;28;20200;-80
2023/10/07 11:09:39;;;;;;;10.50;5.75;;;;;;;19.97;47.72;64060.94;5097124;28;20363;-77
2023/10/07 11:12:12;;;;;;;9.98;6.47;;;;;;;20.10;48.12;64082.28;5094813;28;20255;-79
2023/10/07 11:14:42;;;;;;;7.85;6.68;;;;;;;20.12;48.04;64079.19;5092585;28;20560;-79
2023/10/07 11:17:12;;;;;;;9.18;6.65;;;;;;;20.20;48.08;64087.56;5075218;28;20204;-79
2023/10/07 11:19:43;;;;;;;8.98;6.53;;;;;;;20.05;47.35;64071.38;5073851;28;20232;-80
2023/10/07 11:22:14;;;;;;;9.90;7.20;;;;;;;20.15;46.91;64079.22;5094178;28;20196;-79
2023/10/07 11:24:41;;;;;;;9.55;6.30;;;;;;;20.21;47.48;64090.66;5079838;28;20228;-81
2023/10/07 11:27:12;;;;;;;7.55;6.07;;;;;;;20.30;47.11;64097.47;5086802;28;20199;-80
2023/10/07 11:29:40;;;;;;;9.77;6.65;;;;;;;20.52;47.67;64123.00;5096302;28;20279;-81
2023/10/07 11:32:09;;;;;;;10.40;6.85;;;;;;;20.62;47.85;64133.47;5078010;28;20262;-79
2023/10/07 11:34:39;;;;;;;7.28;6.13;;;;;;;20.67;46.15;64133.50;5074109;28;20220;-79
2023/10/07 11:37:11;;;;;;;9.30;6.55;;;;;;;20.47;47.07;64115.19;5077502;28;20203;-80
2023/10/07 11:39:45;;;;;;;7.78;6.25;;;;;;;20.61;47.38;64132.41;5084928;28;20290;-80
2023/10/07 11:42:14;;;;;;;12.23;6.32;;;;;;;20.82;46.74;64151.75;5095265;28;20211;-80
2023/10/07 11:44:46;;;;;;;9.52;6.38;;;;;;;20.98;46.01;64170.50;5089628;28;20238;-78
2023/10/07 11:47:15;;;;;;;8.40;6.18;;;;;;;20.75;46.11;64149.09;5082977;28;20508;-79
2023/10/07 11:49:46;;;;;;;7.82;5.38;;;;;;;20.76;45.90;64142.88;5090971;28;20219;-79
2023/10/07 11:52:15;;;;;;;15.98;6.00;;;;;;;20.91;46.59;64161.16;5091881;28;20492;-81
2023/10/07 11:54:44;;;;;;;13.57;6.25;;;;;;;20.95;45.41;64167.38;5079911;28;20300;-78
2023/10/07 11:57:11;;;;;;;6.43;5.32;;;;;;;20.85;46.19;64151.75;5072524;28;20422;-79
2023/10/07 11:59:42;;;;;;;8.52;5.35;;;;;;;21.05;46.10;64172.66;5074964;28;20243;-79
2023/10/07 12:02:14;;;;;;;14.77;5.32;;;;;;;21.12;45.04;64180.47;5079326;28;20215;-77
2023/10/07 12:04:46;;;;;;;9.90;5.50;;;;;;;21.12;45.59;64185.66;5080328;28;20225;-78